Knight Air

Knight Air knights of the virtual airways



 METAR AND TAF INFORMATION
METAR FOR EGTE
ADDS - METARS form results

(2310 UTC 22 August 2019)
Data provider http://aviationweather.gov/metar/data/
 
METAR text: EGTE 222250Z 33003KT 9999 SCT030 15/14 Q1025
Conditions at: EGTE (EXETER AIRPORT , GB) observed 2250 UTC 22 August 2019
Temperature: 15.0°C (59°F)
Dewpoint: 14.0°C (57°F) [RH = 94%]
Pressure (altimeter): 30.27 inches Hg (1025.0 mb)
Winds: from the NNW (330 degrees) at 3 MPH (3 knots; 1.5 m/s)
Visibility: 6 or more miles (10+ km)
Ceiling: at least 12,000 feet AGL
Clouds: scattered clouds at 3000 feet AGL
Weather: no significant weather observed at this time

METAR text: EGTE 222220Z 32002KT 9999 BKN027 17/15 Q1026
Conditions at: EGTE (EXETER AIRPORT , GB) observed 2220 UTC 22 August 2019
Temperature: 17.0°C (63°F)
Dewpoint: 15.0°C (59°F) [RH = 88%]
Pressure (altimeter): 30.30 inches Hg (1026.0 mb)
Winds: from the NW (320 degrees) at 2 MPH (2 knots; 1.0 m/s)
Visibility: 6 or more miles (10+ km)
Ceiling: 2700 feet AGL
Clouds: broken clouds at 2700 feet AGL
Weather: no significant weather observed at this time

Forecast for: EGTE (EXETER AIRPORT , GB)
Text: TAF EGTE 222300Z 2300/2303 32004KT 9999 SCT030
Forecast period: 0000 to 0300 UTC 23 August 2019
Forecast type: FROM: standard forecast or significant change
Winds: from the NW (320 degrees) at 5 MPH (4 knots; 2.1 m/s)
Visibility: 6 or more miles 10+ km)
Ceiling: at least 12,000 feet AGL
Clouds: scattered clouds at 3000 feet AGL
Weather: no significant weather forecast for this period
Text: BECMG 2300/2303 2000 BR BKN005
Forecast period: 0000 to 0300 UTC 23 August 2019
Forecast type: BECOMING: Conditions expected to become as follows by 0300 UTC 23 August 2019
Winds: from the NW (320 degrees) at 5 MPH (4 knots; 2.1 m/s)
Visibility: 1.24 miles (2.00 km)
Ceiling: 500 feet AGL
Clouds: broken clouds at 500 feet AGL
Weather: BR  (mist)
Text: PROB30
Forecast period: 0100 to 0300 UTC 23 August 2019
Forecast type: TEMPORARY: The following changes expected for less than half the time period
Visibility: 0.06 miles (0.10 km)
Ceiling: 100 feet AGL
Clouds: broken clouds at 100 feet AGL
Weather: FG  (fog)

 AIRPORT MAP

 RUNWAY INFORMATION
Runway 08 Runway length 6834 ft Runway width 151 ft
Runway elevation 99 ft Runway displaced threshold 33 ft Runway heading 76
Runway 26 Runway length 6834 ft Runway width 151 ft
Runway elevation 102 ft Runway displaced threshold 117 ft Runway heading 256
Runway 13 Runway length 4393 ft Runway width 151 ft
Runway elevation 76 ft Runway displaced threshold 446 ft Runway heading 120
Runway 31 Runway length 4393 ft Runway width 151 ft
Runway elevation 98 ft Runway displaced threshold 0 ft Runway heading 300

 AIRPORT FREQUENCIES
Type APP Name APP Frequency 128.975 MHZ
Type ATIS Name ATIS Frequency 119.325 MHZ
Type Radar Name EXETER Rad Frequency 123.57 MHZ
Type TWR Name TWR Frequency 119.8 MHZ

 AIRPORT NEAR NAVIGATION AIDS